sensor_id;sensor_type;location;lat;lon;timestamp;P1;durP1;ratioP1;P2;durP2;ratioP2
70667;SDS011;58242;51.250;-1.118;2024-02-14T00:00:01;10.38;;;4.15;;
70667;SDS011;58242;51.250;-1.118;2024-02-14T00:02:27;10.57;;;4.45;;
70667;SDS011;58242;51.250;-1.118;2024-02-14T00:04:53;9.98;;;4.00;;
70667;SDS011;58242;51.250;-1.118;2024-02-14T00:07:19;4.55;;;2.90;;
70667;SDS011;58242;51.250;-1.118;2024-02-14T00:09:45;6.10;;;3.88;;
70667;SDS011;58242;51.250;-1.118;2024-02-14T00:12:10;6.20;;;3.70;;
70667;SDS011;58242;51.250;-1.118;2024-02-14T00:14:36;6.53;;;3.17;;
70667;SDS011;58242;51.250;-1.118;2024-02-14T00:17:02;6.35;;;3.88;;
70667;SDS011;58242;51.250;-1.118;2024-02-14T00:19:28;4.68;;;3.20;;
70667;SDS011;58242;51.250;-1.118;2024-02-14T00:21:53;3.63;;;3.03;;
70667;SDS011;58242;51.250;-1.118;2024-02-14T00:24:19;7.00;;;3.47;;
70667;SDS011;58242;51.250;-1.118;2024-02-14T00:26:44;3.95;;;2.88;;
70667;SDS011;58242;51.250;-1.118;2024-02-14T00:29:11;4.32;;;3.25;;
70667;SDS011;58242;51.250;-1.118;2024-02-14T00:31:36;4.78;;;3.55;;
70667;SDS011;58242;51.250;-1.118;2024-02-14T00:34:02;3.47;;;2.95;;
70667;SDS011;58242;51.250;-1.118;2024-02-14T00:36:27;3.90;;;3.10;;
70667;SDS011;58242;51.250;-1.118;2024-02-14T00:38:52;4.28;;;3.70;;
70667;SDS011;58242;51.250;-1.118;2024-02-14T00:41:18;3.22;;;2.95;;
70667;SDS011;58242;51.250;-1.118;2024-02-14T00:43:43;4.55;;;3.33;;
70667;SDS011;58242;51.250;-1.118;2024-02-14T00:46:09;4.60;;;3.17;;
70667;SDS011;58242;51.250;-1.118;2024-02-14T00:48:34;5.03;;;3.90;;
70667;SDS011;58242;51.250;-1.118;2024-02-14T00:50:59;7.05;;;3.83;;
70667;SDS011;58242;51.250;-1.118;2024-02-14T00:53:25;5.25;;;3.53;;
70667;SDS011;58242;51.250;-1.118;2024-02-14T00:55:50;6.13;;;3.50;;
70667;SDS011;58242;51.250;-1.118;2024-02-14T00:58:16;4.35;;;3.60;;
70667;SDS011;58242;51.250;-1.118;2024-02-14T01:00:41;6.85;;;3.30;;
70667;SDS011;58242;51.250;-1.118;2024-02-14T01:03:07;3.63;;;2.72;;
70667;SDS011;58242;51.250;-1.118;2024-02-14T01:05:33;5.47;;;3.45;;
70667;SDS011;58242;51.250;-1.118;2024-02-14T01:07:58;5.90;;;3.50;;
70667;SDS011;58242;51.250;-1.118;2024-02-14T01:10:23;8.88;;;4.47;;
70667;SDS011;58242;51.250;-1.118;2024-02-14T01:12:49;5.72;;;4.00;;
70667;SDS011;58242;51.250;-1.118;2024-02-14T01:15:14;4.85;;;4.05;;
70667;SDS011;58242;51.250;-1.118;2024-02-14T01:17:40;4.47;;;3.67;;
70667;SDS011;58242;51.250;-1.118;2024-02-14T01:20:06;4.93;;;3.30;;
70667;SDS011;58242;51.250;-1.118;2024-02-14T01:22:34;5.72;;;3.25;;
70667;SDS011;58242;51.250;-1.118;2024-02-14T01:24:59;3.97;;;3.40;;
70667;SDS011;58242;51.250;-1.118;2024-02-14T01:27:25;6.35;;;3.50;;
70667;SDS011;58242;51.250;-1.118;2024-02-14T01:29:50;3.67;;;3.38;;
70667;SDS011;58242;51.250;-1.118;2024-02-14T01:32:15;3.38;;;3.08;;
70667;SDS011;58242;51.250;-1.118;2024-02-14T01:34:42;3.47;;;3.00;;
70667;SDS011;58242;51.250;-1.118;2024-02-14T01:37:07;3.17;;;2.97;;
70667;SDS011;58242;51.250;-1.118;2024-02-14T01:39:35;6.13;;;3.28;;
70667;SDS011;58242;51.250;-1.118;2024-02-14T01:42:00;5.07;;;3.38;;
70667;SDS011;58242;51.250;-1.118;2024-02-14T01:44:26;3.13;;;2.92;;
70667;SDS011;58242;51.250;-1.118;2024-02-14T01:46:51;4.38;;;3.33;;
70667;SDS011;58242;51.250;-1.118;2024-02-14T01:49:17;3.50;;;3.30;;
70667;SDS011;58242;51.250;-1.118;2024-02-14T01:51:44;3.40;;;3.10;;
70667;SDS011;58242;51.250;-1.118;2024-02-14T01:54:11;3.63;;;3.33;;
70667;SDS011;58242;51.250;-1.118;2024-02-14T01:56:38;4.97;;;3.20;;
70667;SDS011;58242;51.250;-1.118;2024-02-14T01:59:04;7.20;;;3.95;;
70667;SDS011;58242;51.250;-1.118;2024-02-14T02:01:31;3.67;;;3.38;;
70667;SDS011;58242;51.250;-1.118;2024-02-14T02:03:56;3.33;;;3.08;;
70667;SDS011;58242;51.250;-1.118;2024-02-14T02:06:22;3.10;;;2.90;;
70667;SDS011;58242;51.250;-1.118;2024-02-14T02:08:47;3.65;;;3.40;;
70667;SDS011;58242;51.250;-1.118;2024-02-14T02:11:13;3.83;;;3.33;;
70667;SDS011;58242;51.250;-1.118;2024-02-14T02:13:39;2.90;;;2.80;;
70667;SDS011;58242;51.250;-1.118;2024-02-14T02:16:07;3.08;;;2.70;;
70667;SDS011;58242;51.250;-1.118;2024-02-14T02:18:33;3.30;;;3.00;;
70667;SDS011;58242;51.250;-1.118;2024-02-14T02:20:58;3.50;;;3.20;;
70667;SDS011;58242;51.250;-1.118;2024-02-14T02:23:23;4.65;;;3.22;;
70667;SDS011;58242;51.250;-1.118;2024-02-14T02:25:49;3.13;;;2.83;;
70667;SDS011;58242;51.250;-1.118;2024-02-14T02:28:15;2.95;;;2.70;;
70667;SDS011;58242;51.250;-1.118;2024-02-14T02:30:41;5.65;;;3.25;;
70667;SDS011;58242;51.250;-1.118;2024-02-14T02:33:06;4.85;;;3.10;;
70667;SDS011;58242;51.250;-1.118;2024-02-14T02:35:32;2.92;;;2.70;;
70667;SDS011;58242;51.250;-1.118;2024-02-14T02:37:58;2.83;;;2.72;;
70667;SDS011;58242;51.250;-1.118;2024-02-14T02:40:24;3.92;;;2.95;;
70667;SDS011;58242;51.250;-1.118;2024-02-14T02:42:50;3.70;;;3.05;;
70667;SDS011;58242;51.250;-1.118;2024-02-14T02:45:16;2.92;;;2.72;;
70667;SDS011;58242;51.250;-1.118;2024-02-14T02:47:42;3.00;;;2.80;;
70667;SDS011;58242;51.250;-1.118;2024-02-14T02:50:07;2.90;;;2.70;;
70667;SDS011;58242;51.250;-1.118;2024-02-14T02:52:34;2.80;;;2.60;;
70667;SDS011;58242;51.250;-1.118;2024-02-14T02:54:59;3.20;;;2.90;;
70667;SDS011;58242;51.250;-1.118;2024-02-14T02:57:26;4.30;;;3.33;;
70667;SDS011;58242;51.250;-1.118;2024-02-14T02:59:52;3.03;;;2.75;;
70667;SDS011;58242;51.250;-1.118;2024-02-14T03:02:18;3.42;;;3.22;;
70667;SDS011;58242;51.250;-1.118;2024-02-14T03:04:44;3.17;;;2.90;;
70667;SDS011;58242;51.250;-1.118;2024-02-14T03:07:10;3.03;;;2.72;;
70667;SDS011;58242;51.250;-1.118;2024-02-14T03:09:35;3.63;;;3.35;;
70667;SDS011;58242;51.250;-1.118;2024-02-14T03:12:04;3.00;;;2.80;;
70667;SDS011;58242;51.250;-1.118;2024-02-14T03:14:30;4.20;;;2.90;;
70667;SDS011;58242;51.250;-1.118;2024-02-14T03:17:00;4.22;;;3.15;;
70667;SDS011;58242;51.250;-1.118;2024-02-14T03:19:26;3.45;;;3.03;;
70667;SDS011;58242;51.250;-1.118;2024-02-14T03:21:52;4.32;;;2.85;;
70667;SDS011;58242;51.250;-1.118;2024-02-14T03:24:19;3.78;;;3.28;;
70667;SDS011;58242;51.250;-1.118;2024-02-14T03:26:44;3.70;;;3.00;;
70667;SDS011;58242;51.250;-1.118;2024-02-14T03:29:09;3.75;;;3.40;;
70667;SDS011;58242;51.250;-1.118;2024-02-14T03:31:35;3.70;;;3.25;;
70667;SDS011;58242;51.250;-1.118;2024-02-14T03:34:01;3.45;;;3.17;;
70667;SDS011;58242;51.250;-1.118;2024-02-14T03:36:26;3.50;;;2.83;;
70667;SDS011;58242;51.250;-1.118;2024-02-14T03:38:58;3.28;;;3.00;;
70667;SDS011;58242;51.250;-1.118;2024-02-14T03:41:28;3.13;;;2.92;;
70667;SDS011;58242;51.250;-1.118;2024-02-14T03:43:54;4.57;;;3.10;;
70667;SDS011;58242;51.250;-1.118;2024-02-14T03:46:23;3.60;;;2.83;;
70667;SDS011;58242;51.250;-1.118;2024-02-14T03:48:48;3.03;;;2.83;;
70667;SDS011;58242;51.250;-1.118;2024-02-14T03:51:14;4.22;;;3.20;;
70667;SDS011;58242;51.250;-1.118;2024-02-14T03:53:40;3.25;;;2.90;;
70667;SDS011;58242;51.250;-1.118;2024-02-14T03:56:06;3.70;;;3.20;;
70667;SDS011;58242;51.250;-1.118;2024-02-14T03:58:34;3.33;;;3.13;;
70667;SDS011;58242;51.250;-1.118;2024-02-14T04:01:02;3.13;;;3.03;;
70667;SDS011;58242;51.250;-1.118;2024-02-14T04:03:28;5.90;;;3.65;;
70667;SDS011;58242;51.250;-1.118;2024-02-14T04:05:54;4.22;;;3.17;;
70667;SDS011;58242;51.250;-1.118;2024-02-14T04:08:20;3.55;;;3.25;;
70667;SDS011;58242;51.250;-1.118;2024-02-14T04:10:45;3.88;;;3.38;;
70667;SDS011;58242;51.250;-1.118;2024-02-14T04:13:11;4.15;;;3.15;;
70667;SDS011;58242;51.250;-1.118;2024-02-14T04:15:36;3.90;;;3.00;;
70667;SDS011;58242;51.250;-1.118;2024-02-14T04:18:02;6.40;;;3.88;;
70667;SDS011;58242;51.250;-1.118;2024-02-14T04:20:28;4.05;;;3.60;;
70667;SDS011;58242;51.250;-1.118;2024-02-14T04:22:54;3.53;;;3.33;;
70667;SDS011;58242;51.250;-1.118;2024-02-14T04:25:20;3.83;;;3.55;;
70667;SDS011;58242;51.250;-1.118;2024-02-14T04:27:45;4.57;;;3.50;;
70667;SDS011;58242;51.250;-1.118;2024-02-14T04:30:11;3.67;;;3.42;;
70667;SDS011;58242;51.250;-1.118;2024-02-14T04:32:37;6.38;;;3.83;;
70667;SDS011;58242;51.250;-1.118;2024-02-14T04:35:02;5.75;;;3.60;;
70667;SDS011;58242;51.250;-1.118;2024-02-14T04:37:28;3.80;;;3.50;;
70667;SDS011;58242;51.250;-1.118;2024-02-14T04:39:54;3.38;;;3.15;;
70667;SDS011;58242;51.250;-1.118;2024-02-14T04:42:20;3.72;;;3.40;;
70667;SDS011;58242;51.250;-1.118;2024-02-14T04:44:45;5.03;;;3.78;;
70667;SDS011;58242;51.250;-1.118;2024-02-14T04:47:11;3.67;;;3.38;;
70667;SDS011;58242;51.250;-1.118;2024-02-14T04:49:36;4.00;;;3.65;;
70667;SDS011;58242;51.250;-1.118;2024-02-14T04:52:01;3.80;;;3.42;;
70667;SDS011;58242;51.250;-1.118;2024-02-14T04:54:27;4.38;;;3.67;;
70667;SDS011;58242;51.250;-1.118;2024-02-14T04:56:53;3.10;;;2.80;;
70667;SDS011;58242;51.250;-1.118;2024-02-14T04:59:19;4.22;;;3.50;;
70667;SDS011;58242;51.250;-1.118;2024-02-14T05:01:44;3.13;;;2.92;;
70667;SDS011;58242;51.250;-1.118;2024-02-14T05:04:10;3.60;;;3.40;;
70667;SDS011;58242;51.250;-1.118;2024-02-14T05:06:36;5.35;;;3.80;;
70667;SDS011;58242;51.250;-1.118;2024-02-14T05:09:01;4.03;;;3.70;;
70667;SDS011;58242;51.250;-1.118;2024-02-14T05:11:27;4.32;;;3.97;;
70667;SDS011;58242;51.250;-1.118;2024-02-14T05:13:52;4.15;;;3.70;;
70667;SDS011;58242;51.250;-1.118;2024-02-14T05:16:18;4.20;;;3.80;;
70667;SDS011;58242;51.250;-1.118;2024-02-14T05:18:43;3.42;;;3.22;;
70667;SDS011;58242;51.250;-1.118;2024-02-14T05:21:09;4.25;;;3.70;;
70667;SDS011;58242;51.250;-1.118;2024-02-14T05:23:34;3.80;;;3.40;;
70667;SDS011;58242;51.250;-1.118;2024-02-14T05:26:01;4.15;;;3.85;;
70667;SDS011;58242;51.250;-1.118;2024-02-14T05:28:27;3.50;;;3.30;;
70667;SDS011;58242;51.250;-1.118;2024-02-14T05:30:53;3.10;;;3.00;;
70667;SDS011;58242;51.250;-1.118;2024-02-14T05:33:19;3.70;;;3.40;;
70667;SDS011;58242;51.250;-1.118;2024-02-14T05:35:47;3.28;;;3.08;;
70667;SDS011;58242;51.250;-1.118;2024-02-14T05:38:13;3.30;;;3.15;;
70667;SDS011;58242;51.250;-1.118;2024-02-14T05:40:39;3.10;;;3.00;;
70667;SDS011;58242;51.250;-1.118;2024-02-14T05:43:05;2.85;;;2.75;;
70667;SDS011;58242;51.250;-1.118;2024-02-14T05:45:32;3.05;;;2.90;;
70667;SDS011;58242;51.250;-1.118;2024-02-14T05:47:57;3.10;;;3.00;;
70667;SDS011;58242;51.250;-1.118;2024-02-14T05:50:23;2.70;;;2.60;;
70667;SDS011;58242;51.250;-1.118;2024-02-14T05:52:48;2.78;;;2.60;;
70667;SDS011;58242;51.250;-1.118;2024-02-14T05:55:13;3.20;;;3.10;;
70667;SDS011;58242;51.250;-1.118;2024-02-14T05:57:40;2.60;;;2.50;;
70667;SDS011;58242;51.250;-1.118;2024-02-14T06:00:05;3.08;;;2.95;;
70667;SDS011;58242;51.250;-1.118;2024-02-14T06:02:32;2.90;;;2.80;;
70667;SDS011;58242;51.250;-1.118;2024-02-14T06:04:57;3.40;;;3.30;;
70667;SDS011;58242;51.250;-1.118;2024-02-14T06:07:23;3.00;;;2.90;;
70667;SDS011;58242;51.250;-1.118;2024-02-14T06:09:48;3.08;;;2.97;;
70667;SDS011;58242;51.250;-1.118;2024-02-14T06:12:13;2.90;;;2.80;;
70667;SDS011;58242;51.250;-1.118;2024-02-14T06:14:39;3.40;;;3.30;;
70667;SDS011;58242;51.250;-1.118;2024-02-14T06:17:04;3.30;;;3.20;;
70667;SDS011;58242;51.250;-1.118;2024-02-14T06:19:29;3.25;;;3.15;;
70667;SDS011;58242;51.250;-1.118;2024-02-14T06:21:55;3.35;;;3.25;;
70667;SDS011;58242;51.250;-1.118;2024-02-14T06:24:21;3.40;;;3.30;;
70667;SDS011;58242;51.250;-1.118;2024-02-14T06:26:46;3.28;;;3.17;;
70667;SDS011;58242;51.250;-1.118;2024-02-14T06:29:11;3.15;;;3.05;;
70667;SDS011;58242;51.250;-1.118;2024-02-14T06:31:37;3.55;;;3.40;;
70667;SDS011;58242;51.250;-1.118;2024-02-14T06:34:02;3.50;;;3.40;;
70667;SDS011;58242;51.250;-1.118;2024-02-14T06:36:28;3.30;;;3.20;;
70667;SDS011;58242;51.250;-1.118;2024-02-14T06:38:53;3.38;;;3.28;;
70667;SDS011;58242;51.250;-1.118;2024-02-14T06:41:18;3.75;;;3.65;;
70667;SDS011;58242;51.250;-1.118;2024-02-14T06:43:45;3.42;;;3.33;;
70667;SDS011;58242;51.250;-1.118;2024-02-14T06:46:11;3.63;;;3.42;;
70667;SDS011;58242;51.250;-1.118;2024-02-14T06:48:36;2.92;;;2.80;;
70667;SDS011;58242;51.250;-1.118;2024-02-14T06:51:01;3.50;;;3.40;;
70667;SDS011;58242;51.250;-1.118;2024-02-14T06:53:27;3.95;;;3.75;;
70667;SDS011;58242;51.250;-1.118;2024-02-14T06:55:52;3.55;;;3.35;;
70667;SDS011;58242;51.250;-1.118;2024-02-14T06:58:17;3.38;;;3.20;;
70667;SDS011;58242;51.250;-1.118;2024-02-14T07:00:44;3.58;;;3.47;;
70667;SDS011;58242;51.250;-1.118;2024-02-14T07:03:09;3.40;;;3.20;;
70667;SDS011;58242;51.250;-1.118;2024-02-14T07:05:35;3.78;;;3.58;;
70667;SDS011;58242;51.250;-1.118;2024-02-14T07:08:00;4.20;;;4.00;;
70667;SDS011;58242;51.250;-1.118;2024-02-14T07:10:26;3.72;;;3.60;;
70667;SDS011;58242;51.250;-1.118;2024-02-14T07:12:52;3.75;;;3.65;;
70667;SDS011;58242;51.250;-1.118;2024-02-14T07:15:17;4.10;;;3.90;;
70667;SDS011;58242;51.250;-1.118;2024-02-14T07:17:42;3.60;;;3.40;;
70667;SDS011;58242;51.250;-1.118;2024-02-14T07:20:08;3.35;;;3.20;;
70667;SDS011;58242;51.250;-1.118;2024-02-14T07:22:34;3.25;;;3.15;;
70667;SDS011;58242;51.250;-1.118;2024-02-14T07:25:00;3.67;;;3.55;;
70667;SDS011;58242;51.250;-1.118;2024-02-14T07:27:26;3.75;;;3.55;;
70667;SDS011;58242;51.250;-1.118;2024-02-14T07:29:52;4.22;;;3.88;;
70667;SDS011;58242;51.250;-1.118;2024-02-14T07:32:17;4.28;;;4.07;;
70667;SDS011;58242;51.250;-1.118;2024-02-14T07:34:43;3.38;;;3.17;;
70667;SDS011;58242;51.250;-1.118;2024-02-14T07:37:08;4.38;;;4.07;;
70667;SDS011;58242;51.250;-1.118;2024-02-14T07:39:34;4.00;;;3.75;;
70667;SDS011;58242;51.250;-1.118;2024-02-14T07:42:00;4.20;;;4.00;;
70667;SDS011;58242;51.250;-1.118;2024-02-14T07:44:26;3.75;;;3.65;;
70667;SDS011;58242;51.250;-1.118;2024-02-14T07:46:51;3.67;;;3.58;;
70667;SDS011;58242;51.250;-1.118;2024-02-14T07:49:17;3.25;;;3.15;;
70667;SDS011;58242;51.250;-1.118;2024-02-14T07:51:42;3.00;;;2.90;;
70667;SDS011;58242;51.250;-1.118;2024-02-14T07:54:08;3.42;;;3.33;;
70667;SDS011;58242;51.250;-1.118;2024-02-14T07:56:33;3.80;;;3.60;;
70667;SDS011;58242;51.250;-1.118;2024-02-14T07:58:58;3.95;;;3.75;;
70667;SDS011;58242;51.250;-1.118;2024-02-14T08:01:24;3.20;;;3.10;;
70667;SDS011;58242;51.250;-1.118;2024-02-14T08:03:50;4.00;;;3.80;;
70667;SDS011;58242;51.250;-1.118;2024-02-14T08:06:16;4.07;;;3.90;;
70667;SDS011;58242;51.250;-1.118;2024-02-14T08:08:42;3.97;;;3.78;;
70667;SDS011;58242;51.250;-1.118;2024-02-14T08:11:08;4.32;;;4.03;;
70667;SDS011;58242;51.250;-1.118;2024-02-14T08:13:34;3.88;;;3.75;;
70667;SDS011;58242;51.250;-1.118;2024-02-14T08:15:59;3.75;;;3.55;;
70667;SDS011;58242;51.250;-1.118;2024-02-14T08:18:25;3.22;;;3.13;;
70667;SDS011;58242;51.250;-1.118;2024-02-14T08:20:52;3.10;;;2.97;;
70667;SDS011;58242;51.250;-1.118;2024-02-14T08:23:17;2.90;;;2.80;;
70667;SDS011;58242;51.250;-1.118;2024-02-14T08:25:43;3.70;;;3.60;;
70667;SDS011;58242;51.250;-1.118;2024-02-14T08:28:09;3.65;;;3.55;;
70667;SDS011;58242;51.250;-1.118;2024-02-14T08:30:34;4.03;;;3.92;;
70667;SDS011;58242;51.250;-1.118;2024-02-14T08:33:00;4.03;;;3.75;;
70667;SDS011;58242;51.250;-1.118;2024-02-14T08:35:25;3.58;;;3.40;;
70667;SDS011;58242;51.250;-1.118;2024-02-14T08:37:51;3.60;;;3.47;;
70667;SDS011;58242;51.250;-1.118;2024-02-14T08:40:16;3.53;;;3.42;;
70667;SDS011;58242;51.250;-1.118;2024-02-14T08:42:42;3.22;;;3.13;;
70667;SDS011;58242;51.250;-1.118;2024-02-14T08:45:08;3.40;;;3.20;;
70667;SDS011;58242;51.250;-1.118;2024-02-14T08:47:34;3.38;;;3.28;;
70667;SDS011;58242;51.250;-1.118;2024-02-14T08:49:59;3.05;;;2.95;;
70667;SDS011;58242;51.250;-1.118;2024-02-14T08:52:25;2.85;;;2.75;;
70667;SDS011;58242;51.250;-1.118;2024-02-14T08:54:50;3.30;;;3.20;;
70667;SDS011;58242;51.250;-1.118;2024-02-14T08:57:16;3.03;;;2.92;;
70667;SDS011;58242;51.250;-1.118;2024-02-14T08:59:43;2.85;;;2.75;;
70667;SDS011;58242;51.250;-1.118;2024-02-14T09:02:12;2.58;;;2.55;;
70667;SDS011;58242;51.250;-1.118;2024-02-14T09:04:38;2.60;;;2.50;;
70667;SDS011;58242;51.250;-1.118;2024-02-14T09:07:04;2.92;;;2.83;;
70667;SDS011;58242;51.250;-1.118;2024-02-14T09:09:29;3.22;;;3.13;;
70667;SDS011;58242;51.250;-1.118;2024-02-14T09:11:54;3.00;;;2.90;;
70667;SDS011;58242;51.250;-1.118;2024-02-14T09:14:20;2.63;;;2.53;;
70667;SDS011;58242;51.250;-1.118;2024-02-14T09:16:45;3.25;;;3.05;;
70667;SDS011;58242;51.250;-1.118;2024-02-14T09:19:11;2.72;;;2.70;;
70667;SDS011;58242;51.250;-1.118;2024-02-14T09:21:37;2.60;;;2.50;;
70667;SDS011;58242;51.250;-1.118;2024-02-14T09:24:03;2.50;;;2.40;;
70667;SDS011;58242;51.250;-1.118;2024-02-14T09:26:28;2.97;;;2.80;;
70667;SDS011;58242;51.250;-1.118;2024-02-14T09:28:54;3.03;;;2.92;;
70667;SDS011;58242;51.250;-1.118;2024-02-14T09:31:20;3.22;;;3.13;;
70667;SDS011;58242;51.250;-1.118;2024-02-14T09:33:46;3.03;;;2.92;;
70667;SDS011;58242;51.250;-1.118;2024-02-14T09:36:13;3.50;;;3.40;;
70667;SDS011;58242;51.250;-1.118;2024-02-14T09:38:39;3.00;;;2.90;;
70667;SDS011;58242;51.250;-1.118;2024-02-14T09:41:06;3.33;;;3.15;;
70667;SDS011;58242;51.250;-1.118;2024-02-14T09:43:40;3.40;;;3.30;;
70667;SDS011;58242;51.250;-1.118;2024-02-14T09:46:09;3.03;;;2.92;;
70667;SDS011;58242;51.250;-1.118;2024-02-14T09:48:38;2.70;;;2.60;;
70667;SDS011;58242;51.250;-1.118;2024-02-14T09:51:04;3.22;;;3.13;;
70667;SDS011;58242;51.250;-1.118;2024-02-14T09:53:31;3.00;;;2.90;;
70667;SDS011;58242;51.250;-1.118;2024-02-14T09:55:57;3.13;;;2.92;;
70667;SDS011;58242;51.250;-1.118;2024-02-14T09:58:24;2.60;;;2.50;;
70667;SDS011;58242;51.250;-1.118;2024-02-14T10:00:50;3.00;;;2.90;;
70667;SDS011;58242;51.250;-1.118;2024-02-14T10:03:16;2.83;;;2.72;;
70667;SDS011;58242;51.250;-1.118;2024-02-14T10:05:41;3.10;;;3.00;;
70667;SDS011;58242;51.250;-1.118;2024-02-14T10:08:07;2.90;;;2.80;;
70667;SDS011;58242;51.250;-1.118;2024-02-14T10:10:34;3.20;;;3.00;;
70667;SDS011;58242;51.250;-1.118;2024-02-14T10:13:05;3.03;;;2.90;;
70667;SDS011;58242;51.250;-1.118;2024-02-14T10:15:31;3.67;;;3.47;;
70667;SDS011;58242;51.250;-1.118;2024-02-14T10:17:58;3.35;;;3.20;;
70667;SDS011;58242;51.250;-1.118;2024-02-14T10:20:24;3.33;;;3.20;;
70667;SDS011;58242;51.250;-1.118;2024-02-14T10:22:51;3.00;;;2.80;;
70667;SDS011;58242;51.250;-1.118;2024-02-14T10:25:16;3.15;;;3.05;;
70667;SDS011;58242;51.250;-1.118;2024-02-14T10:27:43;3.03;;;2.92;;
70667;SDS011;58242;51.250;-1.118;2024-02-14T10:30:09;3.50;;;3.20;;
70667;SDS011;58242;51.250;-1.118;2024-02-14T10:32:39;3.20;;;3.00;;
70667;SDS011;58242;51.250;-1.118;2024-02-14T10:35:05;3.55;;;3.35;;
70667;SDS011;58242;51.250;-1.118;2024-02-14T10:37:36;4.40;;;4.00;;
70667;SDS011;58242;51.250;-1.118;2024-02-14T10:40:02;3.45;;;3.35;;
70667;SDS011;58242;51.250;-1.118;2024-02-14T10:42:29;3.67;;;3.42;;
70667;SDS011;58242;51.250;-1.118;2024-02-14T10:44:56;3.78;;;3.58;;
70667;SDS011;58242;51.250;-1.118;2024-02-14T10:47:22;3.92;;;3.63;;
70667;SDS011;58242;51.250;-1.118;2024-02-14T10:49:50;4.00;;;3.80;;
70667;SDS011;58242;51.250;-1.118;2024-02-14T10:52:17;3.90;;;3.70;;
70667;SDS011;58242;51.250;-1.118;2024-02-14T10:54:47;4.03;;;3.80;;
70667;SDS011;58242;51.250;-1.118;2024-02-14T10:57:21;3.58;;;3.40;;
70667;SDS011;58242;51.250;-1.118;2024-02-14T10:59:49;3.92;;;3.72;;
70667;SDS011;58242;51.250;-1.118;2024-02-14T11:02:15;4.15;;;3.95;;
70667;SDS011;58242;51.250;-1.118;2024-02-14T11:04:41;3.83;;;3.63;;
70667;SDS011;58242;51.250;-1.118;2024-02-14T11:07:09;3.90;;;3.70;;
70667;SDS011;58242;51.250;-1.118;2024-02-14T11:09:35;3.75;;;3.53;;
70667;SDS011;58242;51.250;-1.118;2024-02-14T11:12:01;4.13;;;3.83;;
70667;SDS011;58242;51.250;-1.118;2024-02-14T11:14:34;4.22;;;3.95;;
70667;SDS011;58242;51.250;-1.118;2024-02-14T11:17:03;3.72;;;3.53;;
70667;SDS011;58242;51.250;-1.118;2024-02-14T11:19:32;3.55;;;3.40;;
70667;SDS011;58242;51.250;-1.118;2024-02-14T11:22:09;3.65;;;3.42;;
70667;SDS011;58242;51.250;-1.118;2024-02-14T11:24:36;4.55;;;4.15;;
70667;SDS011;58242;51.250;-1.118;2024-02-14T11:27:02;4.18;;;3.80;;
70667;SDS011;58242;51.250;-1.118;2024-02-14T11:29:31;5.47;;;3.70;;
70667;SDS011;58242;51.250;-1.118;2024-02-14T11:32:00;4.90;;;4.38;;
70667;SDS011;58242;51.250;-1.118;2024-02-14T11:34:27;3.78;;;3.58;;
70667;SDS011;58242;51.250;-1.118;2024-02-14T11:36:53;4.10;;;3.80;;
70667;SDS011;58242;51.250;-1.118;2024-02-14T11:39:20;4.20;;;3.78;;
70667;SDS011;58242;51.250;-1.118;2024-02-14T11:41:45;3.35;;;3.15;;
70667;SDS011;58242;51.250;-1.118;2024-02-14T11:44:11;4.13;;;3.92;;
70667;SDS011;58242;51.250;-1.118;2024-02-14T11:46:39;3.33;;;3.23;;
70667;SDS011;58242;51.250;-1.118;2024-02-14T11:49:06;3.72;;;3.42;;
70667;SDS011;58242;51.250;-1.118;2024-02-14T11:51:32;2.67;;;2.58;;
70667;SDS011;58242;51.250;-1.118;2024-02-14T11:53:59;3.13;;;3.03;;
70667;SDS011;58242;51.250;-1.118;2024-02-14T11:56:35;3.25;;;3.08;;
70667;SDS011;58242;51.250;-1.118;2024-02-14T11:59:02;3.58;;;3.40;;
70667;SDS011;58242;51.250;-1.118;2024-02-14T12:01:30;3.60;;;3.35;;
70667;SDS011;58242;51.250;-1.118;2024-02-14T12:03:59;3.40;;;3.20;;
70667;SDS011;58242;51.250;-1.118;2024-02-14T12:06:29;3.15;;;2.90;;
70667;SDS011;58242;51.250;-1.118;2024-02-14T12:09:04;3.80;;;3.33;;
70667;SDS011;58242;51.250;-1.118;2024-02-14T12:11:33;3.47;;;3.28;;
70667;SDS011;58242;51.250;-1.118;2024-02-14T12:14:06;3.33;;;3.22;;
70667;SDS011;58242;51.250;-1.118;2024-02-14T12:16:33;3.80;;;3.60;;
70667;SDS011;58242;51.250;-1.118;2024-02-14T12:19:03;3.65;;;3.42;;
70667;SDS011;58242;51.250;-1.118;2024-02-14T12:21:38;3.10;;;2.97;;
70667;SDS011;58242;51.250;-1.118;2024-02-14T12:24:11;3.50;;;3.20;;
70667;SDS011;58242;51.250;-1.118;2024-02-14T12:26:39;3.25;;;3.05;;
70667;SDS011;58242;51.250;-1.118;2024-02-14T12:29:05;4.03;;;3.72;;
70667;SDS011;58242;51.250;-1.118;2024-02-14T12:31:33;4.13;;;3.10;;
70667;SDS011;58242;51.250;-1.118;2024-02-14T12:34:00;3.70;;;3.50;;
70667;SDS011;58242;51.250;-1.118;2024-02-14T12:36:29;3.53;;;3.33;;
70667;SDS011;58242;51.250;-1.118;2024-02-14T12:38:56;4.72;;;4.30;;
70667;SDS011;58242;51.250;-1.118;2024-02-14T12:41:21;4.82;;;4.63;;
70667;SDS011;58242;51.250;-1.118;2024-02-14T12:43:51;4.15;;;3.88;;
70667;SDS011;58242;51.250;-1.118;2024-02-14T12:46:17;4.45;;;4.25;;
70667;SDS011;58242;51.250;-1.118;2024-02-14T12:48:42;4.00;;;3.88;;
70667;SDS011;58242;51.250;-1.118;2024-02-14T12:51:08;3.60;;;3.47;;
70667;SDS011;58242;51.250;-1.118;2024-02-14T12:53:33;4.20;;;3.83;;
70667;SDS011;58242;51.250;-1.118;2024-02-14T12:55:59;4.22;;;3.97;;
70667;SDS011;58242;51.250;-1.118;2024-02-14T12:58:24;4.07;;;3.67;;
70667;SDS011;58242;51.250;-1.118;2024-02-14T13:00:50;3.70;;;3.50;;
70667;SDS011;58242;51.250;-1.118;2024-02-14T13:03:15;3.63;;;3.33;;
70667;SDS011;58242;51.250;-1.118;2024-02-14T13:05:41;3.50;;;3.30;;
70667;SDS011;58242;51.250;-1.118;2024-02-14T13:08:06;2.83;;;2.72;;
70667;SDS011;58242;51.250;-1.118;2024-02-14T13:10:36;3.28;;;3.08;;
70667;SDS011;58242;51.250;-1.118;2024-02-14T13:13:01;3.72;;;3.53;;
70667;SDS011;58242;51.250;-1.118;2024-02-14T13:15:27;4.00;;;3.70;;
70667;SDS011;58242;51.250;-1.118;2024-02-14T13:17:53;3.08;;;2.70;;
70667;SDS011;58242;51.250;-1.118;2024-02-14T13:20:18;3.58;;;3.28;;
70667;SDS011;58242;51.250;-1.118;2024-02-14T13:22:44;3.53;;;3.15;;
70667;SDS011;58242;51.250;-1.118;2024-02-14T13:25:09;5.55;;;3.63;;
70667;SDS011;58242;51.250;-1.118;2024-02-14T13:27:35;3.42;;;3.10;;
70667;SDS011;58242;51.250;-1.118;2024-02-14T13:30:03;3.60;;;3.50;;
70667;SDS011;58242;51.250;-1.118;2024-02-14T13:34:55;3.45;;;3.25;;
70667;SDS011;58242;51.250;-1.118;2024-02-14T13:37:21;3.60;;;3.38;;
70667;SDS011;58242;51.250;-1.118;2024-02-14T13:39:47;3.22;;;3.03;;
70667;SDS011;58242;51.250;-1.118;2024-02-14T13:42:12;3.80;;;3.50;;
70667;SDS011;58242;51.250;-1.118;2024-02-14T13:44:38;3.47;;;3.17;;
70667;SDS011;58242;51.250;-1.118;2024-02-14T13:47:03;3.97;;;3.55;;
70667;SDS011;58242;51.250;-1.118;2024-02-14T13:49:29;3.60;;;3.40;;
70667;SDS011;58242;51.250;-1.118;2024-02-14T13:51:54;3.38;;;3.13;;
70667;SDS011;58242;51.250;-1.118;2024-02-14T13:54:21;3.60;;;3.28;;
70667;SDS011;58242;51.250;-1.118;2024-02-14T13:56:49;3.40;;;3.30;;
70667;SDS011;58242;51.250;-1.118;2024-02-14T13:59:15;3.47;;;3.17;;
70667;SDS011;58242;51.250;-1.118;2024-02-14T14:01:40;4.07;;;3.78;;
70667;SDS011;58242;51.250;-1.118;2024-02-14T14:04:06;3.50;;;3.20;;
70667;SDS011;58242;51.250;-1.118;2024-02-14T14:06:32;3.45;;;3.20;;
70667;SDS011;58242;51.250;-1.118;2024-02-14T14:08:57;3.90;;;3.70;;
70667;SDS011;58242;51.250;-1.118;2024-02-14T14:11:23;4.22;;;3.92;;
70667;SDS011;58242;51.250;-1.118;2024-02-14T14:13:49;4.57;;;3.97;;
70667;SDS011;58242;51.250;-1.118;2024-02-14T14:16:14;4.05;;;3.85;;
70667;SDS011;58242;51.250;-1.118;2024-02-14T14:18:40;3.70;;;3.38;;
70667;SDS011;58242;51.250;-1.118;2024-02-14T14:21:05;3.88;;;3.60;;
70667;SDS011;58242;51.250;-1.118;2024-02-14T14:23:31;5.40;;;4.50;;
70667;SDS011;58242;51.250;-1.118;2024-02-14T14:25:57;4.30;;;3.85;;
70667;SDS011;58242;51.250;-1.118;2024-02-14T14:28:23;3.90;;;3.58;;